Time;durP1;ratioP1;P1;durP2;ratioP2;P2;SDS_P1;SDS_P2;PMS_P1;PMS_P2;Temp;Humidity;BMP_temperature;BMP_pressure;BME280_temperature;BME280_humidity;BME280_pressure;Samples;Min_cycle;Max_cycle;Signal;HPM_P1;HPM_P2
2022/09/19 00:00:41;;;;;;;1.55;0.80;;;;;;;9.76;100.00;100838.47;5034159;28;20609;-50
2022/09/19 00:03:07;;;;;;;2.58;0.80;;;;;;;9.71;100.00;100837.75;5038759;28;20182;-47
2022/09/19 00:05:33;;;;;;;2.50;0.90;;;;;;;9.71;100.00;100837.75;5047064;28;20234;-47
2022/09/19 00:07:59;;;;;;;2.72;1.02;;;;;;;9.64;100.00;100845.13;5035429;28;20196;-46
2022/09/19 00:10:27;;;;;;;1.08;0.90;;;;;;;9.67;100.00;100842.34;5031976;28;20685;-47
2022/09/19 00:12:55;;;;;;;2.10;0.85;;;;;;;9.68;100.00;100841.38;5032452;28;20283;-46
2022/09/19 00:15:22;;;;;;;2.70;0.80;;;;;;;9.68;100.00;100852.09;5032693;28;20779;-45
2022/09/19 00:17:50;;;;;;;3.83;0.98;;;;;;;9.64;100.00;100857.59;5036198;28;20667;-46
2022/09/19 00:20:16;;;;;;;1.20;0.90;;;;;;;9.64;100.00;100850.47;5034590;28;20716;-45
2022/09/19 00:24:45;;;;;;;3.20;1.05;;;;;;;9.60;100.00;100854.19;5037530;28;20291;-46
2022/09/19 00:25:28;;;;;;;1.95;0.73;;;;;;;9.63;100.00;100854.06;5041443;28;20233;-47
2022/09/19 00:27:54;;;;;;;2.95;0.85;;;;;;;9.63;100.00;100856.72;5041687;28;20200;-46
2022/09/19 00:30:20;;;;;;;4.00;1.13;;;;;;;9.72;100.00;100865.38;5048623;28;20278;-45
2022/09/19 00:32:46;;;;;;;1.67;0.90;;;;;;;9.70;100.00;100865.44;5044233;28;20208;-45
2022/09/19 00:35:12;;;;;;;3.25;1.05;;;;;;;9.71;100.00;100867.19;5034146;28;20182;-47
2022/09/19 00:37:38;;;;;;;2.70;0.77;;;;;;;9.69;100.00;100872.59;5053467;28;20191;-46
2022/09/19 00:40:05;;;;;;;3.67;1.38;;;;;;;9.71;100.00;100867.19;5039053;28;20541;-47
2022/09/19 00:42:30;;;;;;;2.05;0.75;;;;;;;9.68;100.00;100873.50;5034994;28;20180;-43
2022/09/19 00:45:04;;;;;;;1.90;0.90;;;;;;;9.72;100.00;100873.41;5034653;28;20176;-48
2022/09/19 00:47:38;;;;;;;3.08;1.10;;;;;;;9.66;100.00;100878.06;5035375;28;20579;-48
2022/09/19 00:50:10;;;;;;;2.70;0.90;;;;;;;9.66;100.00;100877.16;5034722;28;20581;-47
2022/09/19 00:53:05;;;;;;;4.18;0.85;;;;;;;9.66;100.00;100885.19;5055814;28;20218;-46
2022/09/19 00:55:32;;;;;;;3.15;0.90;;;;;;;9.63;100.00;100880.81;5043131;28;20206;-47
2022/09/19 00:58:05;;;;;;;3.33;1.00;;;;;;;9.67;100.00;100878.91;5035246;28;20311;-46
2022/09/19 01:00:33;;;;;;;2.80;1.20;;;;;;;9.64;100.00;100887.03;5033390;28;20226;-47
2022/09/19 01:03:00;;;;;;;3.42;0.80;;;;;;;9.65;100.00;100887.00;5034360;28;20671;-48
2022/09/19 01:05:42;;;;;;;1.58;0.70;;;;;;;9.64;100.00;100889.69;5038037;28;20474;-47
2022/09/19 01:08:36;;;;;;;2.95;0.80;;;;;;;9.66;100.00;100890.53;5040598;28;20211;-45
2022/09/19 01:11:19;;;;;;;5.63;0.90;;;;;;;9.62;100.00;100891.56;5032746;28;20211;-46
2022/09/19 01:14:05;;;;;;;5.55;1.10;;;;;;;9.56;100.00;100899.81;5033565;28;20191;-47
2022/09/19 01:16:41;;;;;;;1.75;0.70;;;;;;;9.61;100.00;100890.69;5028665;28;20194;-47
2022/09/19 01:19:44;;;;;;;2.53;1.20;;;;;;;9.59;100.00;100889.00;5042314;28;20686;-46
2022/09/19 01:22:41;;;;;;;3.13;0.88;;;;;;;9.53;100.00;100900.75;5040767;28;20654;-46
2022/09/19 01:25:31;;;;;;;0.70;0.70;;;;;;;9.49;100.00;100900.00;5022829;28;20183;-46
2022/09/19 01:28:18;;;;;;;1.77;0.73;;;;;;;9.49;100.00;100902.69;5038031;28;20935;-48
2022/09/19 01:33:46;;;;;;;2.20;1.05;;;;;;;9.39;100.00;100906.56;5032452;28;20299;-46
2022/09/19 01:36:14;;;;;;;0.70;0.70;;;;;;;9.45;100.00;100916.19;5036430;28;20218;-45
2022/09/19 01:38:43;;;;;;;3.30;0.70;;;;;;;9.42;100.00;100918.94;5045756;28;20241;-46
2022/09/19 01:41:11;;;;;;;1.52;0.75;;;;;;;9.44;100.00;100922.47;5045173;28;20617;-45
2022/09/19 01:43:38;;;;;;;2.33;0.80;;;;;;;9.40;100.00;100920.78;5056051;28;20195;-46
2022/09/19 01:46:14;;;;;;;4.15;0.77;;;;;;;9.37;100.00;100924.44;5041260;28;20207;-46
2022/09/19 01:48:42;;;;;;;2.15;0.90;;;;;;;9.40;100.00;100921.69;5051106;28;20200;-45
2022/09/19 01:51:17;;;;;;;2.17;0.80;;;;;;;9.42;100.00;100919.84;5034204;28;20202;-46
2022/09/19 01:53:49;;;;;;;11.98;1.30;;;;;;;9.41;100.00;100920.75;5034558;28;20203;-45
2022/09/19 01:57:02;;;;;;;2.75;0.98;;;;;;;9.48;100.00;100913.41;5030253;28;20191;-45
2022/09/19 01:59:36;;;;;;;2.17;0.73;;;;;;;9.45;100.00;100926.91;5046263;28;20215;-47
2022/09/19 02:02:27;;;;;;;3.42;1.00;;;;;;;9.43;100.00;100940.31;5046273;28;20188;-45
2022/09/19 02:05:01;;;;;;;4.05;0.90;;;;;;;9.44;100.00;100936.69;5049977;28;20183;-46
2022/09/19 02:07:50;;;;;;;4.80;1.05;;;;;;;9.39;100.00;100935.09;5052095;28;20265;-46
2022/09/19 02:10:20;;;;;;;6.93;1.17;;;;;;;9.39;100.00;100935.97;5043730;28;20206;-47
2022/09/19 02:12:50;;;;;;;3.35;0.90;;;;;;;9.40;100.00;100943.09;5044291;28;20195;-46
2022/09/19 02:15:31;;;;;;;1.52;0.70;;;;;;;9.41;100.00;100944.81;5039219;28;20276;-47
2022/09/19 02:18:08;;;;;;;4.57;1.00;;;;;;;9.38;100.00;100942.25;5040110;28;20578;-47
2022/09/19 02:20:39;;;;;;;1.13;0.80;;;;;;;9.32;100.00;100942.44;5040971;28;20702;-47
2022/09/19 02:23:28;;;;;;;2.22;0.60;;;;;;;9.24;100.00;100945.34;5040311;28;20274;-47
2022/09/19 02:25:56;;;;;;;1.45;0.70;;;;;;;9.16;100.00;100951.84;5044378;28;20183;-47
2022/09/19 02:28:31;;;;;;;5.18;0.90;;;;;;;9.00;100.00;100959.47;5039230;28;20216;-45
2022/09/19 02:30:59;;;;;;;1.90;0.60;;;;;;;8.98;100.00;100953.28;5049053;28;20214;-46
2022/09/19 02:33:27;;;;;;;2.60;0.98;;;;;;;8.86;100.00;100954.53;5037361;28;20199;-47
2022/09/19 02:36:16;;;;;;;2.28;0.85;;;;;;;9.07;100.00;100959.25;5042720;28;20269;-47
2022/09/19 02:39:01;;;;;;;0.82;0.60;;;;;;;8.97;100.00;100957.75;5037862;28;20280;-47
2022/09/19 02:42:12;;;;;;;4.88;0.90;;;;;;;8.99;100.00;100965.75;5038223;28;20202;-46
2022/09/19 02:45:17;;;;;;;1.05;0.70;;;;;;;9.10;100.00;100962.75;5037355;28;20188;-47
2022/09/19 02:48:03;;;;;;;0.95;0.75;;;;;;;9.13;100.00;100965.31;5047081;28;20183;-46
2022/09/19 02:50:33;;;;;;;6.40;1.00;;;;;;;9.10;100.00;100949.38;5043685;28;20186;-47
2022/09/19 02:53:03;;;;;;;1.33;0.80;;;;;;;9.20;100.00;100967.75;5055848;28;20636;-46
2022/09/19 02:55:34;;;;;;;2.80;0.73;;;;;;;9.25;100.00;100959.63;5037102;28;20685;-46
2022/09/19 02:58:02;;;;;;;2.45;0.90;;;;;;;9.26;100.00;100962.22;5045555;28;20212;-47
2022/09/19 03:00:32;;;;;;;2.03;0.60;;;;;;;9.32;100.00;100965.66;5044993;28;20647;-45
2022/09/19 03:06:19;;;;;;;0.95;0.60;;;;;;;9.34;100.00;100977.16;5047367;28;20697;-46
2022/09/19 03:08:50;;;;;;;2.47;0.70;;;;;;;9.42;100.00;100970.66;5059812;28;20763;-47
2022/09/19 03:11:20;;;;;;;1.20;0.93;;;;;;;9.42;100.00;100976.00;5042402;28;20664;-45
2022/09/19 03:13:46;;;;;;;4.85;1.10;;;;;;;9.44;100.00;100979.47;5047857;28;20560;-46
2022/09/19 03:16:18;;;;;;;3.88;0.80;;;;;;;9.44;100.00;100974.13;5049583;28;20372;-46
2022/09/19 03:18:46;;;;;;;2.60;0.63;;;;;;;9.46;100.00;100980.31;5054737;28;20206;-46
2022/09/19 03:21:20;;;;;;;3.83;0.63;;;;;;;9.46;100.00;100977.63;5044386;28;20677;-46
2022/09/19 03:23:49;;;;;;;3.72;0.82;;;;;;;9.53;100.00;100983.66;5052663;28;20270;-47
2022/09/19 03:26:25;;;;;;;1.38;0.52;;;;;;;9.56;100.00;100996.09;5050852;28;20217;-45
2022/09/19 03:28:54;;;;;;;0.73;0.40;;;;;;;9.58;100.00;100994.25;5049388;28;20619;-45
2022/09/19 03:31:20;;;;;;;2.55;0.70;;;;;;;9.65;100.00;100999.34;5040571;28;20632;-46
2022/09/19 03:33:46;;;;;;;2.75;0.40;;;;;;;9.62;100.00;100998.56;5040416;28;20187;-46
2022/09/19 03:36:12;;;;;;;1.80;0.55;;;;;;;9.53;100.00;101004.19;5040163;28;20192;-47
2022/09/19 03:38:44;;;;;;;2.10;0.50;;;;;;;9.55;100.00;101002.34;5038025;28;20663;-46
2022/09/19 03:41:17;;;;;;;0.77;0.40;;;;;;;9.49;100.00;101003.44;5041952;28;20222;-46
2022/09/19 03:43:43;;;;;;;0.55;0.52;;;;;;;9.33;100.00;100996.78;5047154;28;20303;-46
2022/09/19 03:46:18;;;;;;;0.63;0.60;;;;;;;9.31;100.00;100999.50;5046980;28;20180;-47
2022/09/19 03:48:46;;;;;;;0.82;0.50;;;;;;;9.16;100.00;101005.31;5046436;28;20223;-46
2022/09/19 03:51:13;;;;;;;1.15;0.50;;;;;;;9.00;100.00;101005.75;5056595;28;20184;-46
2022/09/19 03:53:39;;;;;;;1.52;0.70;;;;;;;8.93;100.00;101011.34;5054229;28;20183;-46
2022/09/19 03:56:05;;;;;;;0.35;0.35;;;;;;;8.98;100.00;101006.72;5051706;28;20231;-46
2022/09/19 03:58:34;;;;;;;0.45;0.45;;;;;;;8.85;100.00;101014.22;5035054;28;20291;-46
2022/09/19 04:01:01;;;;;;;2.10;0.60;;;;;;;8.80;100.00;101014.34;5035080;28;20188;-46
2022/09/19 04:03:27;;;;;;;3.13;0.60;;;;;;;8.70;100.00;101006.63;5044863;28;20534;-45
2022/09/19 04:05:54;;;;;;;1.70;0.40;;;;;;;8.62;100.00;101012.19;5044730;28;20195;-47
2022/09/19 04:08:21;;;;;;;2.92;0.50;;;;;;;8.61;100.00;101013.97;5053585;28;20714;-46
2022/09/19 04:10:47;;;;;;;1.30;0.32;;;;;;;8.59;100.00;101009.59;5038110;28;20178;-47
2022/09/19 04:13:13;;;;;;;2.40;0.60;;;;;;;8.60;100.00;101011.34;5049876;28;20302;-47
2022/09/19 04:15:42;;;;;;;1.23;0.57;;;;;;;8.50;100.00;101017.84;5043974;28;20642;-49
2022/09/19 04:18:09;;;;;;;2.25;0.80;;;;;;;8.55;100.00;101029.28;5059421;28;20206;-48
2022/09/19 04:20:38;;;;;;;2.08;0.80;;;;;;;8.30;100.00;101027.22;5056256;28;20191;-48
2022/09/19 04:23:26;;;;;;;2.22;0.65;;;;;;;8.51;100.00;101028.50;5044066;28;20665;-47
2022/09/19 04:26:11;;;;;;;2.05;0.73;;;;;;;8.40;100.00;101023.44;5033830;28;20191;-48
2022/09/19 04:28:41;;;;;;;1.98;0.70;;;;;;;8.44;100.00;101030.47;5046934;28;20651;-47
2022/09/19 04:31:12;;;;;;;2.00;0.88;;;;;;;8.44;100.00;101027.78;5044747;28;20195;-47
2022/09/19 04:33:37;;;;;;;4.78;0.93;;;;;;;8.38;100.00;101027.91;5045823;28;20185;-46
2022/09/19 04:36:05;;;;;;;1.33;0.55;;;;;;;8.31;100.00;101030.75;5038604;28;20192;-48
2022/09/19 04:38:33;;;;;;;0.77;0.60;;;;;;;8.21;100.00;101041.69;5045023;28;20229;-50
2022/09/19 04:41:00;;;;;;;3.30;1.10;;;;;;;8.23;100.00;101039.84;5033094;28;20175;-47
2022/09/19 04:43:28;;;;;;;1.48;0.70;;;;;;;8.11;100.00;101039.28;5045845;28;20190;-47
2022/09/19 04:46:04;;;;;;;1.55;0.85;;;;;;;8.09;100.00;101055.34;5053786;28;20272;-48
2022/09/19 04:48:34;;;;;;;2.00;0.90;;;;;;;8.12;100.00;101051.72;5036799;28;20230;-48
2022/09/19 04:50:59;;;;;;;2.83;0.65;;;;;;;8.19;100.00;101054.19;5056949;28;20372;-48
2022/09/19 04:53:27;;;;;;;1.42;0.60;;;;;;;8.27;100.00;101050.47;5051014;28;20212;-46
2022/09/19 04:55:55;;;;;;;1.42;0.75;;;;;;;8.20;100.00;101063.09;5048157;28;20188;-47
2022/09/19 04:58:22;;;;;;;1.35;0.80;;;;;;;8.20;100.00;101073.78;5031140;28;20204;-48
2022/09/19 05:00:53;;;;;;;1.50;0.90;;;;;;;8.14;100.00;101074.78;5050112;28;20571;-48
2022/09/19 05:03:25;;;;;;;3.53;0.93;;;;;;;8.08;100.00;101069.59;5037801;28;20176;-46
2022/09/19 05:05:52;;;;;;;1.10;0.77;;;;;;;8.02;100.00;101080.41;5053488;28;20321;-47
2022/09/19 05:08:30;;;;;;;2.97;0.98;;;;;;;8.08;100.00;101080.25;5050629;28;20277;-47
2022/09/19 05:11:04;;;;;;;1.85;0.98;;;;;;;7.98;100.00;101082.28;5046697;28;20198;-47
2022/09/19 05:13:32;;;;;;;3.05;1.10;;;;;;;7.97;100.00;101079.66;5041068;28;20203;-47
2022/09/19 05:16:00;;;;;;;1.48;0.93;;;;;;;8.08;100.00;101080.25;5058017;28;20199;-48
2022/09/19 05:18:28;;;;;;;2.47;1.27;;;;;;;7.98;100.00;101084.06;5056586;28;20203;-49
2022/09/19 05:20:55;;;;;;;2.40;0.93;;;;;;;7.90;100.00;101088.72;5037829;28;20191;-47
2022/09/19 05:23:23;;;;;;;1.63;1.00;;;;;;;7.85;100.00;101091.50;5037241;28;20188;-47
2022/09/19 05:25:53;;;;;;;4.00;1.17;;;;;;;7.99;100.00;101091.16;5037045;28;20175;-46
2022/09/19 05:28:26;;;;;;;4.47;1.20;;;;;;;7.92;100.00;101098.44;5032190;28;20204;-48
2022/09/19 05:30:55;;;;;;;5.80;1.27;;;;;;;7.95;100.00;101089.47;5039291;28;20796;-48
2022/09/19 05:33:28;;;;;;;5.40;1.02;;;;;;;7.99;100.00;101085.81;5040934;28;20705;-48
2022/09/19 05:35:59;;;;;;;4.38;1.25;;;;;;;7.96;100.00;101086.78;5038090;28;20257;-48
2022/09/19 05:38:57;;;;;;;2.70;1.05;;;;;;;7.95;100.00;101094.81;5032122;28;20227;-48
2022/09/19 05:41:46;;;;;;;3.50;1.05;;;;;;;8.04;100.00;101083.91;5024998;28;20588;-47
2022/09/19 05:44:17;;;;;;;3.22;1.48;;;;;;;8.01;100.00;101100.00;5045230;28;20195;-48
2022/09/19 05:46:46;;;;;;;4.85;1.20;;;;;;;8.01;100.00;101097.34;5036738;28;20245;-48
2022/09/19 05:49:11;;;;;;;3.80;1.50;;;;;;;8.25;100.00;101093.22;5036203;28;20318;-47
2022/09/19 05:51:36;;;;;;;6.90;1.60;;;;;;;8.34;100.00;101102.78;5040099;28;20620;-49
2022/09/19 05:54:03;;;;;;;4.22;1.30;;;;;;;8.63;100.00;101091.38;5044261;28;20183;-47
2022/09/19 05:56:49;;;;;;;6.47;1.50;;;;;;;8.94;100.00;101094.13;5049208;28;20225;-46
2022/09/19 05:59:15;;;;;;;4.93;1.45;;;;;;;9.40;100.00;101098.19;5055286;28;20634;-48
2022/09/19 06:01:42;;;;;;;6.13;1.52;;;;;;;9.47;100.00;101096.22;5050902;28;20183;-48
2022/09/19 06:04:18;;;;;;;5.65;1.85;;;;;;;9.84;100.00;101098.66;5039938;28;20175;-49
2022/09/19 06:06:45;;;;;;;6.05;1.60;;;;;;;10.26;100.00;101102.69;5055474;28;20186;-48
2022/09/19 06:09:11;;;;;;;7.05;1.85;;;;;;;10.21;100.00;101107.31;5053910;28;20215;-48
2022/09/19 06:11:40;;;;;;;8.50;1.65;;;;;;;10.13;100.00;101112.06;5036934;28;20269;-47
2022/09/19 06:14:18;;;;;;;8.05;1.52;;;;;;;10.18;100.00;101110.97;5045852;28;20198;-46
2022/09/19 06:16:48;;;;;;;4.43;1.92;;;;;;;10.17;100.00;101119.94;5059025;28;20183;-48
2022/09/19 06:19:31;;;;;;;5.47;1.50;;;;;;;10.22;100.00;101103.72;5042970;28;20694;-47
2022/09/19 06:22:05;;;;;;;7.78;2.00;;;;;;;10.28;100.00;101109.75;5040863;28;20608;-48
2022/09/19 06:24:31;;;;;;;12.13;1.90;;;;;;;10.30;100.00;101113.28;5042757;28;20210;-47
2022/09/19 06:26:57;;;;;;;6.28;1.40;;;;;;;10.29;100.00;101114.19;5056268;28;20281;-47
2022/09/19 06:29:24;;;;;;;8.90;2.10;;;;;;;10.30;100.00;101105.25;5055533;28;20195;-45
2022/09/19 06:32:09;;;;;;;10.18;1.98;;;;;;;10.39;100.00;101113.94;5046464;28;20596;-47
2022/09/19 06:34:39;;;;;;;7.05;1.42;;;;;;;10.40;100.00;101115.66;5046370;28;20183;-47
2022/09/19 06:37:05;;;;;;;6.65;1.65;;;;;;;10.56;100.00;101116.91;5050014;28;20290;-47
2022/09/19 06:39:32;;;;;;;7.40;1.52;;;;;;;10.64;100.00;101116.66;5056142;28;20286;-47
2022/09/19 06:42:29;;;;;;;10.10;1.83;;;;;;;10.90;100.00;101119.28;5052438;28;20179;-48
2022/09/19 06:45:13;;;;;;;5.82;1.65;;;;;;;10.86;100.00;101120.31;5046521;28;20200;-47
2022/09/19 06:47:58;;;;;;;11.68;5.72;;;;;;;11.36;100.00;101130.19;5060679;28;20196;-47
2022/09/19 06:50:46;;;;;;;7.20;3.63;;;;;;;11.95;100.00;101128.88;5041935;28;20229;-46
2022/09/19 06:53:14;;;;;;;9.30;2.65;;;;;;;12.32;100.00;101122.91;5054750;28;20219;-48
2022/09/19 06:55:40;;;;;;;10.05;2.85;;;;;;;12.70;100.00;101116.88;5037570;28;20198;-47
2022/09/19 06:58:11;;;;;;;8.27;2.40;;;;;;;13.04;100.00;101131.56;5043960;28;20555;-46
2022/09/19 07:00:38;;;;;;;7.13;1.58;;;;;;;13.05;100.00;101119.88;5048986;28;20264;-46
2022/09/19 07:03:09;;;;;;;6.55;1.50;;;;;;;12.94;98.99;101118.53;5059510;28;20187;-46
2022/09/19 07:05:38;;;;;;;7.60;1.77;;;;;;;12.67;98.80;101128.66;5039163;28;20568;-46
2022/09/19 07:08:18;;;;;;;7.10;1.60;;;;;;;12.56;98.80;101134.47;5036704;28;20281;-46
2022/09/19 07:10:44;;;;;;;6.38;1.52;;;;;;;12.59;98.63;101128.09;5041750;28;20191;-47
2022/09/19 07:13:13;;;;;;;5.72;1.20;;;;;;;12.49;98.97;101132.13;5048224;28;20211;-47
2022/09/19 07:15:40;;;;;;;5.88;1.27;;;;;;;12.50;99.33;101133.84;5046836;28;20230;-47
2022/09/19 07:18:10;;;;;;;5.60;1.50;;;;;;;12.65;99.56;101135.03;5047495;28;20603;-46
2022/09/19 07:20:37;;;;;;;5.43;1.42;;;;;;;12.86;99.25;101135.94;5042163;28;20212;-47
2022/09/19 07:23:17;;;;;;;8.40;1.50;;;;;;;12.65;98.58;101138.59;5040063;28;20202;-47
2022/09/19 07:26:02;;;;;;;10.30;2.03;;;;;;;12.51;98.76;101144.53;5037585;28;20199;-46
2022/09/19 07:28:28;;;;;;;5.35;1.40;;;;;;;12.47;98.80;101150.13;5037966;28;20214;-48
2022/09/19 07:30:56;;;;;;;10.70;1.90;;;;;;;12.43;99.24;101154.72;5037772;28;20196;-43
2022/09/19 07:33:23;;;;;;;5.75;1.38;;;;;;;12.36;99.25;101156.78;5045600;28;20301;-43
2022/09/19 07:35:51;;;;;;;8.45;1.30;;;;;;;13.10;99.72;101150.16;5039033;28;20183;-43
2022/09/19 07:38:19;;;;;;;6.93;1.55;;;;;;;13.38;98.06;101158.78;5057458;28;20211;-45
2022/09/19 07:41:11;;;;;;;6.70;1.27;;;;;;;13.79;96.23;101155.13;5035306;28;20192;-43
2022/09/19 07:43:56;;;;;;;7.28;1.67;;;;;;;14.26;94.73;101156.53;5041783;28;20186;-43
2022/09/19 07:47:26;;;;;;;8.00;1.55;;;;;;;14.49;92.88;101152.69;5040878;28;20182;-42
2022/09/19 07:49:43;;;;;;;5.97;1.15;;;;;;;14.38;90.55;101156.78;5045324;28;20728;-42
2022/09/19 07:52:24;;;;;;;5.35;1.58;;;;;;;14.67;89.71;101157.22;5045319;28;20739;-43
2022/09/19 07:54:50;;;;;;;5.43;1.30;;;;;;;14.72;88.29;101165.94;5039782;28;20195;-42
2022/09/19 07:57:17;;;;;;;5.47;1.25;;;;;;;15.05;86.58;101167.88;5037985;28;20199;-44
2022/09/19 07:59:44;;;;;;;3.55;0.98;;;;;;;15.25;85.48;101164.16;5041983;28;20195;-43
2022/09/19 08:02:11;;;;;;;17.77;1.58;;;;;;;15.09;84.65;101157.81;5038273;28;20187;-44
2022/09/19 08:04:37;;;;;;;8.27;1.80;;;;;;;15.28;85.07;101168.50;5042649;28;20184;-44
2022/09/19 08:07:06;;;;;;;5.63;1.13;;;;;;;15.62;84.47;101162.19;5051011;28;20351;-42
2022/09/19 08:09:33;;;;;;;4.53;0.90;;;;;;;15.46;83.41;101162.16;5051740;28;20204;-43
2022/09/19 08:12:04;;;;;;;3.00;1.15;;;;;;;15.87;83.84;101161.75;5046471;28;20253;-42
2022/09/19 08:14:33;;;;;;;6.38;1.17;;;;;;;15.66;83.49;101166.47;5042363;28;20179;-42
2022/09/19 08:17:00;;;;;;;4.53;1.10;;;;;;;15.62;82.46;101168.47;5038297;28;20188;-43
2022/09/19 08:19:28;;;;;;;3.50;1.20;;;;;;;15.55;82.23;101167.06;5040953;28;20588;-44
2022/09/19 08:21:53;;;;;;;2.13;0.60;;;;;;;15.37;82.88;101166.22;5037103;28;20263;-42
2022/09/19 08:24:19;;;;;;;3.88;1.17;;;;;;;15.72;82.76;101170.69;5039097;28;20194;-43
2022/09/19 08:26:45;;;;;;;3.63;1.00;;;;;;;16.08;82.02;101180.44;5054228;28;20188;-45
2022/09/19 08:29:12;;;;;;;4.03;1.00;;;;;;;16.51;82.00;101178.91;5039707;28;20195;-42
2022/09/19 08:31:55;;;;;;;3.20;1.20;;;;;;;16.54;80.17;101176.00;5043220;28;20208;-44
2022/09/19 08:34:24;;;;;;;3.22;1.00;;;;;;;16.22;79.65;101183.22;5053558;28;20182;-43
2022/09/19 08:36:51;;;;;;;2.90;1.05;;;;;;;15.98;79.37;101183.66;5041137;28;20303;-43
2022/09/19 08:39:16;;;;;;;3.22;0.88;;;;;;;16.33;79.27;101188.91;5035707;28;20295;-43
2022/09/19 08:41:58;;;;;;;6.28;0.85;;;;;;;16.29;79.41;101190.06;5040244;28;20203;-42
2022/09/19 08:44:24;;;;;;;3.05;0.82;;;;;;;16.87;78.32;101183.16;5053448;28;20753;-44
2022/09/19 08:46:52;;;;;;;3.67;0.82;;;;;;;16.37;77.59;101189.63;5039733;28;20195;-44
2022/09/19 08:49:31;;;;;;;5.00;0.85;;;;;;;16.83;77.83;101187.00;5051361;28;20289;-44
2022/09/19 08:52:02;;;;;;;2.40;0.75;;;;;;;16.62;76.66;101194.50;5030378;28;20267;-42
2022/09/19 08:54:35;;;;;;;4.45;1.08;;;;;;;16.52;76.38;101198.69;5045525;28;20191;-43
2022/09/19 08:57:09;;;;;;;3.83;1.00;;;;;;;16.80;75.88;101190.75;5036189;28;20186;-41
2022/09/19 08:59:39;;;;;;;1.98;0.70;;;;;;;16.85;76.28;101195.91;5056977;28;20291;-41
2022/09/19 09:02:26;;;;;;;3.05;0.57;;;;;;;16.69;77.48;101194.06;5040039;28;20302;-43
2022/09/19 09:05:02;;;;;;;2.97;0.73;;;;;;;17.14;76.16;101190.56;5047764;28;20187;-43
2022/09/19 09:07:39;;;;;;;4.00;1.05;;;;;;;17.17;74.72;101199.41;5044856;28;20188;-42
2022/09/19 09:10:42;;;;;;;2.65;0.77;;;;;;;17.03;75.07;101204.75;5053006;28;20187;-43
2022/09/19 09:13:38;;;;;;;5.28;0.90;;;;;;;16.99;74.92;101195.97;5056100;28;20546;-44
2022/09/19 09:16:21;;;;;;;1.35;0.60;;;;;;;16.67;73.82;101211.34;5044106;28;20671;-44
2022/09/19 09:18:58;;;;;;;2.40;0.82;;;;;;;16.57;73.23;101204.69;5045732;28;20191;-40
2022/09/19 09:21:46;;;;;;;2.50;0.70;;;;;;;17.23;74.24;101198.16;5053733;28;20195;-42
2022/09/19 09:24:22;;;;;;;1.27;0.63;;;;;;;16.89;72.83;101211.84;5039371;28;20190;-40
2022/09/19 09:27:09;;;;;;;2.38;0.57;;;;;;;16.95;70.65;101218.75;5054762;28;20184;-43
2022/09/19 09:29:41;;;;;;;1.83;0.68;;;;;;;16.81;69.61;101210.56;5051928;28;20678;-43
2022/09/19 09:32:26;;;;;;;2.30;0.80;;;;;;;17.24;70.35;101206.19;5051512;28;20703;-43
2022/09/19 09:35:12;;;;;;;2.63;0.70;;;;;;;17.28;71.54;101206.88;5045490;28;20702;-42
2022/09/19 09:37:46;;;;;;;7.53;0.70;;;;;;;17.25;70.70;101205.25;5049704;28;20226;-42
2022/09/19 09:43:20;;;;;;;1.38;0.50;;;;;;;17.22;68.45;101200.00;5052980;28;20224;-43
2022/09/19 09:45:50;;;;;;;2.30;0.70;;;;;;;17.28;68.47;101210.47;5037267;28;20218;-43
2022/09/19 09:48:33;;;;;;;2.10;0.75;;;;;;;17.12;68.65;101211.47;5038784;28;20722;-45
2022/09/19 09:51:08;;;;;;;1.38;0.65;;;;;;;17.29;68.03;101204.09;5032526;28;20219;-46
2022/09/19 09:53:57;;;;;;;1.80;0.70;;;;;;;17.46;68.02;101199.47;5057409;28;20215;-48
2022/09/19 09:56:30;;;;;;;1.77;0.52;;;;;;;17.07;69.64;101215.31;5057442;28;20183;-47
2022/09/19 10:05:33;;;;;;;4.20;0.68;;;;;;;16.98;69.64;101215.00;5032831;28;20192;-44
2022/09/19 10:08:18;;;;;;;2.55;0.50;;;;;;;17.30;69.00;101211.25;5043598;28;20209;-44
2022/09/19 10:10:46;;;;;;;1.85;0.60;;;;;;;17.10;68.61;101217.00;5033348;28;20194;-45
2022/09/19 10:13:25;;;;;;;1.08;0.73;;;;;;;17.00;70.86;101213.94;5030023;28;20212;-47
2022/09/19 10:15:54;;;;;;;2.10;0.63;;;;;;;17.70;69.59;101210.63;5037004;28;20198;-47
2022/09/19 10:18:25;;;;;;;3.38;0.98;;;;;;;17.45;68.64;101219.41;5045526;28;20212;-47
2022/09/19 10:21:04;;;;;;;1.98;0.75;;;;;;;17.32;69.81;101212.97;5056812;28;20195;-44
2022/09/19 10:23:34;;;;;;;2.08;0.60;;;;;;;17.18;70.17;101217.38;5058080;28;20187;-47
2022/09/19 10:26:14;;;;;;;2.60;0.85;;;;;;;17.70;69.32;101210.63;5040107;28;20540;-46
2022/09/19 10:28:51;;;;;;;3.60;0.88;;;;;;;17.68;67.38;101213.44;5044742;28;20208;-43
2022/09/19 10:31:38;;;;;;;2.63;0.80;;;;;;;17.35;67.61;101205.53;5037355;28;20183;-44
2022/09/19 10:34:32;;;;;;;1.65;0.50;;;;;;;16.83;68.45;101217.63;5042190;28;20270;-45
2022/09/19 10:37:02;;;;;;;2.38;0.50;;;;;;;17.07;67.74;101207.19;5051916;28;20215;-44
2022/09/19 10:39:30;;;;;;;2.58;0.70;;;;;;;17.54;68.82;101210.72;5044296;28;20283;-45
2022/09/19 10:41:55;;;;;;;1.88;0.50;;;;;;;17.96;68.96;101209.03;5055228;28;20270;-44
2022/09/19 10:44:25;;;;;;;3.20;0.73;;;;;;;17.81;66.65;101204.53;5041992;28;20674;-44
2022/09/19 10:47:01;;;;;;;1.33;0.60;;;;;;;17.55;64.56;101201.59;5046482;28;20278;-45
2022/09/19 10:49:46;;;;;;;1.15;0.50;;;;;;;17.34;65.02;101201.09;5041706;28;20254;-47
2022/09/19 10:52:30;;;;;;;1.42;0.55;;;;;;;17.05;66.00;101213.66;5040249;28;20195;-46
2022/09/19 10:55:02;;;;;;;3.90;0.50;;;;;;;17.24;67.63;101206.19;5044705;28;20187;-46
2022/09/19 10:57:45;;;;;;;0.90;0.52;;;;;;;16.88;68.58;101215.53;5044350;28;20299;-50
2022/09/19 11:00:28;;;;;;;1.98;0.50;;;;;;;17.00;68.34;101222.06;5047149;28;20552;-49
2022/09/19 11:03:16;;;;;;;1.67;0.50;;;;;;;17.27;68.76;101218.66;5038947;28;20283;-46
2022/09/19 11:05:42;;;;;;;1.27;0.52;;;;;;;16.87;67.74;101219.19;5042079;28;20194;-46
2022/09/19 11:08:25;;;;;;;1.40;0.47;;;;;;;17.00;68.13;101229.31;5057991;28;20290;-47
2022/09/19 11:10:56;;;;;;;1.30;0.40;;;;;;;16.65;68.23;101233.06;5058429;28;20526;-48
2022/09/19 11:13:29;;;;;;;1.77;0.60;;;;;;;16.71;68.88;101234.56;5043536;28;20203;-46
2022/09/19 11:16:17;;;;;;;1.80;0.40;;;;;;;16.00;70.35;101232.22;5054266;28;20687;-46
2022/09/19 11:19:10;;;;;;;2.65;0.50;;;;;;;15.80;72.26;101230.59;5038687;28;20728;-46
2022/09/19 11:21:46;;;;;;;1.27;0.32;;;;;;;16.10;72.02;101227.19;5044908;28;20194;-51
2022/09/19 11:24:17;;;;;;;3.22;0.43;;;;;;;16.13;70.30;101229.72;5045551;28;20211;-48
2022/09/19 11:27:17;;;;;;;1.98;0.43;;;;;;;16.34;71.78;101233.06;5057671;28;20233;-48
2022/09/19 11:29:53;;;;;;;1.95;0.50;;;;;;;16.60;70.74;101224.34;5047286;28;20762;-46
2022/09/19 11:32:32;;;;;;;3.78;0.45;;;;;;;17.05;70.53;101224.50;5045171;28;20246;-51
2022/09/19 11:35:25;;;;;;;1.95;0.50;;;;;;;16.92;68.36;101224.34;5045335;28;20188;-47
2022/09/19 11:37:56;;;;;;;2.05;0.50;;;;;;;17.60;68.94;101212.16;5046287;28;20612;-47
2022/09/19 11:40:36;;;;;;;2.15;0.60;;;;;;;17.48;66.76;101205.66;5048291;28;20325;-47
2022/09/19 11:43:06;;;;;;;0.82;0.55;;;;;;;17.45;64.17;101214.00;5050753;28;20624;-46
2022/09/19 11:45:56;;;;;;;0.30;0.30;;;;;;;16.95;64.27;101223.31;5045102;28;20187;-47
2022/09/19 11:48:54;;;;;;;1.35;0.40;;;;;;;17.52;66.13;101218.06;5048272;28;20219;-46
2022/09/19 11:51:41;;;;;;;1.15;0.32;;;;;;;17.56;63.83;101222.34;5031549;28;20192;-48
2022/09/19 11:54:28;;;;;;;2.03;0.57;;;;;;;16.82;63.15;101223.16;5034885;28;20211;-48
2022/09/19 11:57:38;;;;;;;4.00;0.55;;;;;;;16.81;64.50;101229.50;5040558;28;20237;-48
2022/09/19 12:00:19;;;;;;;0.45;0.40;;;;;;;16.86;64.21;101222.00;5009255;28;20199;-49
2022/09/19 12:03:24;;;;;;;1.98;0.60;;;;;;;17.27;65.30;101214.16;5033336;28;20556;-49
2022/09/19 12:06:42;;;;;;;0.93;0.60;;;;;;;17.52;66.36;101212.66;5036555;28;20241;-47
2022/09/19 12:09:25;;;;;;;0.95;0.50;;;;;;;17.73;65.27;101215.84;5056018;28;20208;-46
2022/09/19 12:12:11;;;;;;;2.88;0.50;;;;;;;17.16;64.47;101215.72;5047344;28;20214;-47
2022/09/19 12:15:15;;;;;;;1.10;0.40;;;;;;;17.52;63.73;101214.50;5035104;28;20242;-46